createdAt,value
2022-12-03T00:01:31.565Z,97318.00
2022-12-03T00:04:24.130Z,97340.97
2022-12-03T00:07:16.870Z,97323.41
2022-12-03T00:10:08.058Z,97319.94
2022-12-03T00:13:04.306Z,97318.97
2022-12-03T00:15:57.708Z,97330.31
2022-12-03T00:18:49.929Z,97326.72
2022-12-03T00:21:39.711Z,97318.41
2022-12-03T00:24:30.080Z,97326.72
2022-12-03T00:27:23.722Z,97315.53
2022-12-03T00:30:15.996Z,97321.59
2022-12-03T00:33:05.959Z,97328.09
2022-12-03T00:35:55.605Z,97318.16
2022-12-03T00:41:59.981Z,97308.47
2022-12-03T00:44:49.902Z,97316.34
2022-12-03T00:47:42.611Z,97318.84
2022-12-03T00:50:38.951Z,97317.31
2022-12-03T00:53:30.776Z,97313.16
2022-12-03T00:56:38.832Z,97317.75
2022-12-03T00:59:46.107Z,97312.34
2022-12-03T01:02:48.338Z,97331.69
2022-12-03T01:05:41.822Z,97321.03
2022-12-03T01:08:28.889Z,97319.25
2022-12-03T01:11:37.865Z,97319.81
2022-12-03T01:14:35.142Z,97318.97
2022-12-03T01:17:32.364Z,97313.00
2022-12-03T01:20:19.464Z,97325.06
2022-12-03T01:23:16.873Z,97320.06
2022-12-03T01:26:04.280Z,97314.13
2022-12-03T01:28:52.219Z,97313.16
2022-12-03T01:32:05.067Z,97311.63
2022-12-03T01:34:56.005Z,97324.22
2022-12-03T01:37:43.274Z,97324.50
2022-12-03T01:40:30.308Z,97322.00
2022-12-03T01:43:22.671Z,97318.25
2022-12-03T01:46:12.526Z,97315.78
2022-12-03T01:48:59.498Z,97318.41
2022-12-03T01:51:50.038Z,97328.66
2022-12-03T01:54:43.086Z,97327.69
2022-12-03T01:58:07.959Z,97316.19
2022-12-03T02:00:54.976Z,97312.59
2022-12-03T02:03:46.042Z,97320.91
2022-12-03T02:06:34.534Z,97307.47
2022-12-03T02:09:26.090Z,97306.25
2022-12-03T02:12:15.246Z,97326.88
2022-12-03T02:15:11.505Z,97316.34
2022-12-03T02:17:58.475Z,97321.59
2022-12-03T02:20:54.261Z,97319.81
2022-12-03T02:23:44.059Z,97320.63
2022-12-03T02:26:30.942Z,97310.38
2022-12-03T02:29:18.004Z,97317.19
2022-12-03T02:32:10.417Z,97312.06
2022-12-03T02:35:00.498Z,97305.13
2022-12-03T02:37:59.417Z,97309.97
2022-12-03T02:40:58.271Z,97311.22
2022-12-03T02:43:45.201Z,97306.63
2022-12-03T02:46:36.630Z,97311.50
2022-12-03T02:49:23.614Z,97303.19
2022-12-03T02:52:10.793Z,97306.50
2022-12-03T02:55:05.625Z,97310.78
2022-12-03T02:57:52.764Z,97304.72
2022-12-03T03:00:40.057Z,97320.06
2022-12-03T03:03:30.576Z,97311.34
2022-12-03T03:06:23.088Z,97305.69
2022-12-03T03:09:14.678Z,97310.78
2022-12-03T03:12:08.083Z,97312.72
2022-12-03T03:14:58.238Z,97314.41
2022-12-03T03:17:45.415Z,97312.72
2022-12-03T03:20:38.517Z,97316.19
2022-12-03T03:23:26.792Z,97322.97
2022-12-03T03:26:16.397Z,97323.09
2022-12-03T03:29:04.098Z,97323.53
2022-12-03T03:31:54.280Z,97324.75
2022-12-03T03:34:44.378Z,97317.28
2022-12-03T03:37:38.803Z,97313.84
2022-12-03T03:40:39.612Z,97313.84
2022-12-03T03:43:28.066Z,97329.19
2022-12-03T03:46:26.670Z,97317.41
2022-12-03T03:49:22.046Z,97318.25
2022-12-03T03:52:12.859Z,97313.13
2022-12-03T03:55:08.565Z,97309.41
2022-12-03T03:57:58.936Z,97318.94
2022-12-03T04:00:51.286Z,97312.16
2022-12-03T04:03:38.861Z,97328.78
2022-12-03T04:06:27.491Z,97315.47
2022-12-03T04:09:20.818Z,97318.38
2022-12-03T04:12:28.762Z,97312.28
2022-12-03T04:15:18.784Z,97318.94
2022-12-03T04:18:24.282Z,97311.31
2022-12-03T04:21:37.293Z,97318.94
2022-12-03T04:24:24.238Z,97322.28
2022-12-03T04:27:31.807Z,97319.75
2022-12-03T04:30:18.550Z,97307.47
2022-12-03T04:33:24.035Z,97310.94
2022-12-03T04:36:10.812Z,97312.59
2022-12-03T04:38:57.624Z,97308.16
2022-12-03T04:41:44.388Z,97312.44
2022-12-03T04:44:36.429Z,97310.78
2022-12-03T04:47:23.431Z,97311.78
2022-12-03T04:50:10.754Z,97318.69
2022-12-03T04:52:57.524Z,97315.91
2022-12-03T04:55:44.347Z,97321.03
2022-12-03T04:58:34.060Z,97314.13
2022-12-03T05:01:21.187Z,97303.31
2022-12-03T05:04:07.967Z,97303.63
2022-12-03T05:06:56.274Z,97305.97
2022-12-03T05:09:43.070Z,97313.16
2022-12-03T05:12:29.863Z,97313.97
2022-12-03T05:15:18.668Z,97307.75
2022-12-03T05:18:08.286Z,97289.63
2022-12-03T05:20:55.052Z,97287.84
2022-12-03T05:23:42.425Z,97288.69
2022-12-03T05:26:29.263Z,97281.91
2022-12-03T05:29:16.576Z,97286.19
2022-12-03T05:32:05.705Z,97284.53
2022-12-03T05:34:52.963Z,97288.25
2022-12-03T05:37:39.974Z,97299.31
2022-12-03T05:40:26.729Z,97309.81
2022-12-03T05:43:16.238Z,97310.78
2022-12-03T05:46:03.053Z,97318.53
2022-12-03T05:48:49.858Z,97309.00
2022-12-03T05:51:36.600Z,97318.69
2022-12-03T05:54:23.446Z,97322.00
2022-12-03T05:57:10.357Z,97316.75
2022-12-03T06:00:00.135Z,97324.66
2022-12-03T06:02:47.133Z,97317.69
2022-12-03T06:05:34.392Z,97313.56
2022-12-03T06:08:21.179Z,97322.97
2022-12-03T06:11:08.010Z,97322.13
2022-12-03T06:13:54.764Z,97329.91
2022-12-03T06:16:47.707Z,97324.66
2022-12-03T06:19:34.857Z,97314.91
2022-12-03T06:22:27.494Z,97318.38
2022-12-03T06:25:18.075Z,97314.78
2022-12-03T06:28:06.228Z,97306.06
2022-12-03T06:30:56.565Z,97310.38
2022-12-03T06:33:43.835Z,97313.00
2022-12-03T06:36:31.042Z,97325.72
2022-12-03T06:39:19.403Z,97323.63
2022-12-03T06:42:06.752Z,97340.53
2022-12-03T06:44:53.765Z,97337.06
2022-12-03T06:47:40.747Z,97330.84
2022-12-03T06:50:32.870Z,97333.47
2022-12-03T06:53:20.806Z,97335.28
2022-12-03T06:56:11.039Z,97324.59
2022-12-03T06:59:04.284Z,97324.34
2022-12-03T07:01:54.487Z,97327.38
2022-12-03T07:04:49.744Z,97313.69
2022-12-03T07:07:44.496Z,97319.19
2022-12-03T07:10:39.241Z,97317.41
2022-12-03T07:13:26.020Z,97330.53
2022-12-03T07:16:12.889Z,97332.91
2022-12-03T07:18:59.685Z,97330.97
2022-12-03T07:21:48.645Z,97327.91
2022-12-03T07:24:36.608Z,97327.66
2022-12-03T07:27:27.510Z,97311.31
2022-12-03T07:30:57.988Z,97307.19
2022-12-03T07:33:53.550Z,97310.50
2022-12-03T07:36:45.667Z,97312.03
2022-12-03T07:39:36.749Z,97302.31
2022-12-03T07:42:41.909Z,97312.28
2022-12-03T07:45:32.855Z,97309.41
2022-12-03T07:48:35.383Z,97302.63
2022-12-03T07:51:33.629Z,97301.78
2022-12-03T07:54:21.539Z,97300.13
2022-12-03T07:57:42.984Z,97305.50
2022-12-03T08:00:42.197Z,97309.81
2022-12-03T08:03:29.324Z,97313.00
2022-12-03T08:06:25.104Z,97308.84
2022-12-03T08:09:17.733Z,97301.38
2022-12-03T08:12:36.201Z,97292.63
2022-12-03T08:15:41.234Z,97290.97
2022-12-03T08:18:59.441Z,97289.44
2022-12-03T08:21:57.971Z,97293.75
2022-12-03T08:32:17.550Z,97278.09
2022-12-03T08:35:39.823Z,97288.09
2022-12-03T08:41:57.450Z,97279.66
2022-12-03T08:44:54.443Z,97286.56
2022-12-03T08:47:44.626Z,97292.06
2022-12-03T08:54:12.059Z,97295.72
2022-12-03T09:03:08.744Z,97277.28
2022-12-03T09:14:05.004Z,97306.31
2022-12-03T09:17:27.674Z,97290.97
2022-12-03T09:20:29.803Z,97284.34
2022-12-03T09:24:03.036Z,97280.06
2022-12-03T09:33:33.093Z,97294.13
2022-12-03T09:37:34.225Z,97298.59
2022-12-03T09:41:32.238Z,97308.97
2022-12-03T09:48:18.945Z,97308.97
2022-12-03T09:51:22.834Z,97308.97
2022-12-03T09:58:08.082Z,97300.13
2022-12-03T10:01:16.442Z,97279.91
2022-12-03T10:13:13.919Z,97286.69
2022-12-03T10:16:54.458Z,97290.00
2022-12-03T11:12:42.582Z,97248.69
2022-12-03T11:32:18.262Z,97247.84
2022-12-03T11:48:22.013Z,97231.56
2022-12-03T11:54:06.275Z,97221.63
2022-12-03T11:58:27.044Z,97201.41
2022-12-03T12:22:02.643Z,97187.88
2022-12-03T12:42:44.685Z,97169.91
2022-12-03T12:50:32.182Z,97153.72
2022-12-03T13:20:59.268Z,97154.66
2022-12-03T13:29:04.067Z,97144.44
2022-12-03T13:47:48.438Z,97145.16
2022-12-03T13:52:23.033Z,97136.16
2022-12-03T14:14:28.848Z,97131.44
2022-12-03T14:32:34.701Z,97136.41
2022-12-03T14:40:22.607Z,97127.28
2022-12-03T14:53:33.598Z,97116.91
2022-12-03T14:57:13.223Z,97111.25
2022-12-03T15:00:51.665Z,97118.00
2022-12-03T15:04:23.354Z,97099.63
2022-12-03T15:07:44.146Z,97127.56
2022-12-03T15:11:16.299Z,97119.41
2022-12-03T15:15:15.335Z,97112.34
2022-12-03T15:18:34.186Z,97129.50
2022-12-03T15:25:39.691Z,97107.53
2022-12-03T15:36:23.631Z,97134.03
2022-12-03T15:39:26.996Z,97130.59
2022-12-03T15:49:19.526Z,97121.34
2022-12-03T15:52:28.112Z,97112.78
2022-12-03T15:55:40.933Z,97119.53
2022-12-03T15:58:35.792Z,97097.13
2022-12-03T16:01:26.010Z,97115.81
2022-12-03T16:04:31.428Z,97124.25
2022-12-03T16:07:35.145Z,97117.72
2022-12-03T16:13:50.653Z,97116.78
2022-12-03T16:16:47.804Z,97103.66
2022-12-03T16:19:41.675Z,97097.41
2022-12-03T16:22:28.610Z,97088.81
2022-12-03T16:25:15.431Z,97090.34
2022-12-03T16:28:02.265Z,97095.16
2022-12-03T16:30:49.050Z,97098.78
2022-12-03T16:33:35.892Z,97099.59
2022-12-03T16:36:22.706Z,97092.53
2022-12-03T16:39:09.464Z,97090.06
2022-12-03T16:41:59.044Z,97090.78
2022-12-03T16:45:14.848Z,97088.25
2022-12-03T16:48:01.875Z,97085.63
2022-12-03T16:50:48.649Z,97095.16
2022-12-03T16:53:35.446Z,97100.44
2022-12-03T16:56:22.331Z,97111.09
2022-12-03T16:59:09.237Z,97110.13
2022-12-03T17:01:56.129Z,97101.41
2022-12-03T17:04:43.110Z,97105.00
2022-12-03T17:07:30.055Z,97096.16
2022-12-03T17:10:20.904Z,97100.44
2022-12-03T17:13:09.718Z,97097.81
2022-12-03T17:15:57.020Z,97098.78
2022-12-03T17:18:43.970Z,97097.13
2022-12-03T17:21:35.014Z,97095.47
2022-12-03T17:24:24.495Z,97095.31
2022-12-03T17:27:12.852Z,97084.97
2022-12-03T17:30:04.117Z,97095.31
2022-12-03T17:32:54.312Z,97084.97
2022-12-03T17:35:41.353Z,97091.88
2022-12-03T17:38:35.519Z,97095.31
2022-12-03T17:41:26.232Z,97093.69
2022-12-03T17:44:17.773Z,97097.13
2022-12-03T17:47:06.453Z,97089.38
2022-12-03T17:49:53.605Z,97087.44
2022-12-03T17:52:40.645Z,97084.00
2022-12-03T17:55:37.011Z,97087.44
2022-12-03T17:58:37.277Z,97076.94
2022-12-03T18:01:32.150Z,97080.28
2022-12-03T18:04:21.486Z,97090.50
2022-12-03T18:07:08.390Z,97096.44
2022-12-03T18:09:55.593Z,97095.59
2022-12-03T18:12:42.539Z,97105.13
2022-12-03T18:15:30.052Z,97107.91
2022-12-03T18:18:16.897Z,97099.06
2022-12-03T18:21:04.273Z,97097.56
2022-12-03T18:23:51.132Z,97089.69
2022-12-03T18:26:42.629Z,97089.53
2022-12-03T18:29:30.950Z,97090.50
2022-12-03T18:32:34.496Z,97080.09
2022-12-03T18:35:21.546Z,97076.00
2022-12-03T18:38:30.569Z,97072.50
2022-12-03T18:41:29.424Z,97064.22
2022-12-03T18:44:22.536Z,97066.97
2022-12-03T18:47:13.816Z,97061.59
2022-12-03T18:50:06.406Z,97066.41
2022-12-03T18:52:59.760Z,97057.59
2022-12-03T18:55:47.124Z,97054.81
2022-12-03T18:58:34.286Z,97055.63
2022-12-03T19:01:27.468Z,97054.66
2022-12-03T19:04:14.851Z,97050.81
2022-12-03T19:07:04.007Z,97047.09
2022-12-03T19:09:51.333Z,97048.19
2022-12-03T19:12:44.480Z,97036.97
2022-12-03T19:15:40.737Z,97049.72
2022-12-03T19:18:44.252Z,97052.34
2022-12-03T19:21:46.907Z,97052.63
2022-12-03T19:24:34.099Z,97046.66
2022-12-03T19:27:31.285Z,97047.75
2022-12-03T19:30:28.545Z,97047.47
2022-12-03T19:33:28.839Z,97058.00
2022-12-03T19:36:31.451Z,97045.13
2022-12-03T19:39:24.514Z,97055.38
2022-12-03T19:42:15.653Z,97060.88
2022-12-03T19:45:02.603Z,97056.19
2022-12-03T19:47:52.255Z,97054.00
2022-12-03T19:50:39.389Z,97063.78
2022-12-03T19:53:31.586Z,97055.25
2022-12-03T19:56:19.895Z,97043.38
2022-12-03T19:59:07.768Z,97053.97
2022-12-03T20:01:57.625Z,97059.25
2022-12-03T20:04:46.546Z,97045.28
2022-12-03T20:07:36.493Z,97057.88
2022-12-03T20:10:26.172Z,97053.28
2022-12-03T20:13:15.767Z,97052.06
2022-12-03T20:16:08.600Z,97048.19
2022-12-03T20:19:06.714Z,97048.72
2022-12-03T20:24:58.653Z,97020.94
2022-12-03T20:27:45.726Z,97024.81
2022-12-03T20:30:35.883Z,97027.72
2022-12-03T20:33:27.794Z,97035.59
2022-12-03T20:36:17.799Z,97041.28
2022-12-03T20:39:12.117Z,97033.53
2022-12-03T20:41:59.256Z,97016.66
2022-12-03T20:44:46.432Z,97027.16
2022-12-03T20:47:33.613Z,97028.97
2022-12-03T20:50:26.467Z,97029.81
2022-12-03T20:53:26.411Z,97018.84
2022-12-03T20:56:22.192Z,97013.22
2022-12-03T20:59:15.487Z,97009.47
2022-12-03T21:02:06.561Z,96998.28
2022-12-03T21:05:02.324Z,96998.16
2022-12-03T21:07:53.079Z,97003.94
2022-12-03T21:10:50.873Z,97000.34
2022-12-03T21:13:41.421Z,96999.91
2022-12-03T21:16:52.507Z,96989.56
2022-12-03T21:19:46.292Z,97005.31
2022-12-03T21:22:33.623Z,97002.16
2022-12-03T21:25:24.826Z,97000.19
2022-12-03T21:28:15.029Z,96996.88
2022-12-03T21:31:11.380Z,96995.91
2022-12-03T21:34:02.907Z,96991.91
2022-12-03T21:36:58.233Z,96985.00
2022-12-03T21:39:47.734Z,96992.47
2022-12-03T21:42:39.481Z,96982.94
2022-12-03T21:45:29.141Z,96973.81
2022-12-03T21:48:19.407Z,96980.97
2022-12-03T21:51:11.447Z,96974.63
2022-12-03T21:53:58.590Z,96982.63
2022-12-03T21:56:52.365Z,96985.41
2022-12-03T21:59:40.779Z,96975.88
2022-12-03T22:02:35.949Z,96974.19
2022-12-03T22:05:23.665Z,96963.13
2022-12-03T22:08:11.109Z,96958.84
2022-12-03T22:10:58.183Z,96983.47
2022-12-03T22:13:50.482Z,96967.00
2022-12-03T22:16:40.276Z,96956.38
2022-12-03T22:19:31.854Z,96959.13
2022-12-03T22:22:19.261Z,96954.31
2022-12-03T22:25:10.260Z,96953.47
2022-12-03T22:27:57.777Z,96957.47
2022-12-03T22:30:47.904Z,96942.44
2022-12-03T22:33:38.361Z,96947.97
2022-12-03T22:36:28.381Z,96953.75
2022-12-03T22:39:20.669Z,96955.69
2022-12-03T22:42:07.705Z,96957.06
2022-12-03T22:44:57.375Z,96950.00
2022-12-03T22:47:44.265Z,96951.53
2022-12-03T22:50:37.088Z,96961.91
2022-12-03T22:53:27.172Z,96941.59
2022-12-03T22:56:14.355Z,96940.63
2022-12-03T22:59:01.749Z,96937.84
2022-12-03T23:01:49.070Z,96949.59
2022-12-03T23:04:36.743Z,96955.66
2022-12-03T23:07:28.136Z,96939.91
2022-12-03T23:10:15.343Z,96943.50
2022-12-03T23:13:02.666Z,96943.91
2022-12-03T23:15:58.527Z,96953.03
2022-12-03T23:18:47.990Z,96941.44
2022-12-03T23:21:40.183Z,96936.44
2022-12-03T23:24:36.149Z,96928.47
2022-12-03T23:27:27.121Z,96937.28
2022-12-03T23:30:15.346Z,96935.38
2022-12-03T23:33:02.610Z,96928.31
2022-12-03T23:35:49.518Z,96926.50
2022-12-03T23:38:47.277Z,96932.03
2022-12-03T23:41:36.373Z,96930.38
2022-12-03T23:44:23.306Z,96930.38
2022-12-03T23:47:12.405Z,96932.31
2022-12-03T23:49:59.204Z,96919.00
2022-12-03T23:52:51.763Z,96920.97
2022-12-03T23:55:40.049Z,96906.84
2022-12-03T23:58:28.866Z,96899.78
